Ana Sayfa
METAR-TAF:

METAR-TAF

Havaalanları :

Fort Worth Spinks Airport

Fort Worth, Teksas, Amerika Birleşik Devletleri

Enlem: 32-34N, Boylam: 097-18W, yükseklik: 213 m

Güncel hava durumu gözlemi

Rapor saat 18:46 UTC de 18 dakika önce yapıldı.
Rüzgar batıdan 12 kt ve 20 kt'a kadar ani rüzgarlar
Sıcaklık 18°C
Nem 42%
Basınç 1009 hPa
Görüş mesafesi: 16.1 km
Açık gökyüzü

METAR: KFWS 241846Z 27012G20KT 10SM CLR 18/05 A2981

Saat: 13:04 (19:04 UTC)


TAF: eksik

4.000'den fazla havaalanı için hava durumu gözlemleri ve tahminleri (METAR ve TAF raporları).

Kullanılabilir istasyonlar harita üzerinde sarı ve kırmızı noktalarla gösterilir.

İstasyonun adını görmek için fareyi noktanın üzerinde gezdirin.

Sonrasında hava gözlem ve tahminlerini görmek için tıklayın.

Haritayı değiştirmek için: yaklaştırmak için siyah artı işaretli yeşil düğmeye ve uzaklaştırmak için de eksi işaretli düğmeye hızla tıklayın; bitişik haritalar için yeşil okları kullanın.


METAR-TAF: